createdAt,value
2018-08-17T00:01:20.171Z,13.27
2018-08-17T00:03:47.288Z,13.00
2018-08-17T00:06:14.413Z,12.67
2018-08-17T00:08:41.718Z,12.80
2018-08-17T00:11:08.868Z,12.20
2018-08-17T00:13:35.988Z,12.47
2018-08-17T00:16:03.133Z,11.37
2018-08-17T00:18:30.263Z,13.70
2018-08-17T00:20:57.395Z,12.40
2018-08-17T00:23:24.537Z,13.20
2018-08-17T00:25:51.681Z,15.30
2018-08-17T00:28:18.795Z,14.87
2018-08-17T00:30:45.973Z,14.13
2018-08-17T00:33:13.096Z,16.33
2018-08-17T00:35:40.236Z,16.07
2018-08-17T00:38:07.395Z,17.00
2018-08-17T00:40:34.536Z,17.33
2018-08-17T00:43:01.672Z,17.57
2018-08-17T00:45:28.809Z,18.37
2018-08-17T00:47:55.954Z,16.30
2018-08-17T00:50:23.056Z,15.17
2018-08-17T00:52:50.160Z,15.20
2018-08-17T00:55:17.384Z,15.37
2018-08-17T00:57:44.501Z,15.70
2018-08-17T01:00:11.616Z,14.57
2018-08-17T01:02:38.727Z,13.83
2018-08-17T01:05:05.880Z,12.47
2018-08-17T01:07:33.007Z,11.53
2018-08-17T01:10:00.120Z,10.97
2018-08-17T01:12:27.248Z,10.33
2018-08-17T01:14:54.378Z,9.13
2018-08-17T01:17:21.597Z,8.17
2018-08-17T01:19:48.733Z,7.50
2018-08-17T01:22:15.884Z,7.20
2018-08-17T01:24:43.004Z,6.40
2018-08-17T01:27:10.180Z,6.70
2018-08-17T01:29:37.296Z,6.17
2018-08-17T01:32:04.408Z,6.43
2018-08-17T01:34:31.503Z,6.50
2018-08-17T01:36:58.636Z,7.00
2018-08-17T01:39:25.740Z,7.53
2018-08-17T01:41:52.872Z,6.40
2018-08-17T01:44:19.965Z,7.03
2018-08-17T01:46:47.057Z,7.17
2018-08-17T01:49:14.143Z,6.77
2018-08-17T01:51:41.255Z,6.20
2018-08-17T01:54:08.473Z,7.80
2018-08-17T01:56:35.612Z,8.30
2018-08-17T01:59:02.776Z,8.30
2018-08-17T02:01:29.904Z,7.80
2018-08-17T02:03:57.044Z,8.07
2018-08-17T02:06:24.164Z,8.43
2018-08-17T02:08:51.292Z,8.90
2018-08-17T02:11:18.417Z,8.53
2018-08-17T02:13:45.505Z,8.67
2018-08-17T02:16:12.628Z,9.37
2018-08-17T02:18:39.724Z,7.87
2018-08-17T02:21:06.841Z,9.60
2018-08-17T02:23:33.949Z,9.73
2018-08-17T02:26:01.078Z,9.40
2018-08-17T02:28:28.252Z,9.40
2018-08-17T02:30:55.376Z,9.00
2018-08-17T02:33:22.481Z,9.93
2018-08-17T02:35:49.626Z,8.63
2018-08-17T02:38:16.822Z,8.57
2018-08-17T02:40:43.938Z,10.10
2018-08-17T02:43:11.088Z,8.87
2018-08-17T02:45:38.201Z,8.37
2018-08-17T02:48:05.340Z,8.67
2018-08-17T02:50:32.487Z,9.53
2018-08-17T02:52:59.605Z,8.97
2018-08-17T02:55:26.715Z,7.40
2018-08-17T02:57:53.800Z,9.87
2018-08-17T03:00:20.925Z,8.97
2018-08-17T03:02:48.009Z,8.90
2018-08-17T03:05:15.132Z,9.47
2018-08-17T03:07:42.249Z,9.47
2018-08-17T03:10:09.384Z,11.27
2018-08-17T03:12:36.536Z,7.87
2018-08-17T03:15:03.672Z,7.40
2018-08-17T03:17:30.788Z,8.10
2018-08-17T03:19:57.900Z,8.37
2018-08-17T03:22:25.046Z,8.83
2018-08-17T03:24:52.130Z,9.10
2018-08-17T03:27:19.233Z,8.57
2018-08-17T03:29:46.336Z,8.50
2018-08-17T03:32:13.448Z,8.37
2018-08-17T03:34:40.544Z,9.53
2018-08-17T03:37:07.671Z,9.50
2018-08-17T03:39:34.875Z,10.23
2018-08-17T03:42:01.985Z,8.80
2018-08-17T03:44:29.097Z,9.93
2018-08-17T03:46:56.179Z,8.00
2018-08-17T03:49:23.284Z,9.60
2018-08-17T03:51:50.379Z,10.70
2018-08-17T03:54:17.517Z,9.50
2018-08-17T03:56:44.613Z,9.57
2018-08-17T03:59:11.750Z,10.60
2018-08-17T04:01:38.856Z,10.03
2018-08-17T04:04:06.848Z,10.33
2018-08-17T04:06:33.936Z,9.30
2018-08-17T04:09:01.038Z,11.13
2018-08-17T04:11:28.148Z,10.23
2018-08-17T04:13:55.256Z,9.00
2018-08-17T04:16:22.372Z,11.97
2018-08-17T04:18:54.800Z,10.27
2018-08-17T04:21:21.901Z,10.73
2018-08-17T04:23:49.054Z,9.73
2018-08-17T04:26:16.132Z,8.07
2018-08-17T04:28:43.231Z,9.83
2018-08-17T04:31:10.320Z,10.10
2018-08-17T04:33:37.452Z,11.23
2018-08-17T04:36:04.571Z,10.30
2018-08-17T04:38:31.678Z,9.53
2018-08-17T04:40:58.800Z,10.77
2018-08-17T04:43:25.900Z,9.87
2018-08-17T04:45:53.001Z,9.93
2018-08-17T04:48:20.141Z,10.10
2018-08-17T04:50:47.244Z,9.93
2018-08-17T04:53:14.350Z,10.37
2018-08-17T04:55:41.452Z,10.57
2018-08-17T04:58:08.569Z,10.07
2018-08-17T05:00:35.699Z,9.27
2018-08-17T05:03:02.826Z,9.83
2018-08-17T05:05:29.912Z,8.13
2018-08-17T05:07:57.056Z,9.50
2018-08-17T05:10:24.137Z,8.60
2018-08-17T05:12:51.244Z,8.87
2018-08-17T05:15:18.356Z,9.43
2018-08-17T05:17:45.473Z,8.33
2018-08-17T05:20:12.581Z,8.40
2018-08-17T05:22:39.683Z,8.37
2018-08-17T05:25:06.837Z,9.60
2018-08-17T05:27:33.938Z,9.10
2018-08-17T05:30:01.053Z,9.00
2018-08-17T05:32:28.166Z,9.10
2018-08-17T05:34:55.296Z,10.43
2018-08-17T05:37:22.434Z,9.13
2018-08-17T05:39:49.550Z,8.93
2018-08-17T05:42:16.688Z,9.37
2018-08-17T05:44:43.816Z,9.27
2018-08-17T05:47:10.945Z,8.80
2018-08-17T05:49:38.086Z,9.30
2018-08-17T05:52:05.306Z,8.43
2018-08-17T05:54:32.409Z,9.03
2018-08-17T05:56:59.539Z,8.70
2018-08-17T05:59:26.656Z,9.23
2018-08-17T06:01:53.833Z,8.47
2018-08-17T06:04:20.940Z,9.17
2018-08-17T06:06:48.070Z,9.47
2018-08-17T06:09:15.165Z,9.50
2018-08-17T06:11:42.289Z,8.00
2018-08-17T06:14:09.408Z,8.97
2018-08-17T06:16:36.528Z,8.40
2018-08-17T06:19:03.667Z,8.33
2018-08-17T06:21:30.788Z,8.20
2018-08-17T06:23:57.921Z,7.93
2018-08-17T06:26:25.041Z,9.43
2018-08-17T06:28:52.197Z,7.90
2018-08-17T06:31:19.325Z,7.47
2018-08-17T06:33:46.444Z,7.63
2018-08-17T06:36:13.627Z,7.57
2018-08-17T06:38:40.701Z,7.60
2018-08-17T06:41:07.833Z,6.80
2018-08-17T06:43:34.961Z,7.97
2018-08-17T06:46:02.092Z,7.00
2018-08-17T06:48:29.218Z,7.07
2018-08-17T06:50:56.360Z,7.30
2018-08-17T06:53:23.504Z,7.40
2018-08-17T06:55:50.620Z,6.47
2018-08-17T06:58:17.752Z,7.00
2018-08-17T07:00:44.885Z,7.90
2018-08-17T07:03:12.009Z,6.70
2018-08-17T07:05:39.193Z,5.93
2018-08-17T07:08:06.352Z,7.40
2018-08-17T07:10:33.490Z,6.80
2018-08-17T07:13:00.680Z,7.97
2018-08-17T07:15:27.836Z,7.10
2018-08-17T07:17:54.960Z,7.00
2018-08-17T07:20:22.064Z,6.67
2018-08-17T07:22:49.213Z,6.57
2018-08-17T07:25:16.348Z,7.53
2018-08-17T07:27:43.490Z,7.10
2018-08-17T07:30:13.842Z,6.60
2018-08-17T07:32:41.101Z,7.33
2018-08-17T07:35:08.993Z,7.87
2018-08-17T07:37:36.117Z,6.97
2018-08-17T07:40:03.697Z,7.20
2018-08-17T07:42:30.840Z,7.60
2018-08-17T07:44:57.988Z,7.50
2018-08-17T07:47:25.144Z,7.60
2018-08-17T07:49:52.277Z,7.10
2018-08-17T07:52:19.412Z,8.20
2018-08-17T07:54:46.564Z,8.53
2018-08-17T07:57:13.712Z,8.83
2018-08-17T07:59:40.865Z,8.30
2018-08-17T08:02:08.004Z,8.80
2018-08-17T08:04:35.084Z,8.87
2018-08-17T08:07:02.201Z,8.40
2018-08-17T08:09:29.296Z,8.47
2018-08-17T08:11:56.416Z,8.50
2018-08-17T08:14:23.513Z,8.90
2018-08-17T08:16:50.620Z,8.00
2018-08-17T08:19:17.744Z,9.00
2018-08-17T08:21:47.545Z,8.93
2018-08-17T08:24:14.908Z,8.90
2018-08-17T08:26:42.068Z,7.97
2018-08-17T08:29:09.237Z,9.03
2018-08-17T08:31:36.404Z,8.87
2018-08-17T08:34:03.619Z,8.43
2018-08-17T08:36:30.745Z,8.70
2018-08-17T08:38:57.848Z,9.37
2018-08-17T08:41:24.977Z,8.70
2018-08-17T08:43:52.094Z,9.23
2018-08-17T08:46:19.206Z,8.47
2018-08-17T08:48:46.341Z,8.77
2018-08-17T08:51:13.468Z,7.60
2018-08-17T08:53:40.616Z,7.53
2018-08-17T08:56:07.834Z,7.47
2018-08-17T08:58:34.902Z,6.17
2018-08-17T09:01:02.045Z,7.23
2018-08-17T09:03:29.170Z,7.17
2018-08-17T09:05:56.324Z,6.13
2018-08-17T09:08:23.472Z,6.20
2018-08-17T09:10:50.565Z,6.00
2018-08-17T09:13:17.664Z,5.30
2018-08-17T09:15:44.889Z,5.80
2018-08-17T09:18:12.051Z,5.30
2018-08-17T09:20:39.189Z,5.93
2018-08-17T09:23:06.302Z,5.90
2018-08-17T09:25:33.420Z,6.07
2018-08-17T09:28:00.534Z,5.37
2018-08-17T09:30:27.652Z,5.93
2018-08-17T09:32:54.749Z,6.07
2018-08-17T09:35:21.846Z,4.67
2018-08-17T09:37:48.950Z,3.53
2018-08-17T09:40:16.080Z,3.37
2018-08-17T09:42:43.189Z,3.97
2018-08-17T09:45:11.446Z,3.00
2018-08-17T09:47:38.533Z,3.23
2018-08-17T09:50:07.694Z,3.10
2018-08-17T09:52:34.792Z,2.90
2018-08-17T09:55:01.917Z,3.00
2018-08-17T09:57:29.131Z,4.00
2018-08-17T09:59:56.260Z,4.10
2018-08-17T10:02:29.041Z,3.80
2018-08-17T10:05:02.084Z,3.43
2018-08-17T10:07:35.173Z,3.70
2018-08-17T10:10:24.161Z,3.30
2018-08-17T10:12:51.670Z,3.10
2018-08-17T10:15:18.777Z,3.20
2018-08-17T10:17:46.277Z,2.97
2018-08-17T10:20:15.993Z,3.13
2018-08-17T10:22:43.472Z,2.80
2018-08-17T10:25:14.797Z,3.17
2018-08-17T10:27:42.485Z,2.90
2018-08-17T10:30:09.676Z,2.67
2018-08-17T10:32:41.909Z,2.83
2018-08-17T10:35:13.761Z,2.80
2018-08-17T10:37:40.861Z,3.17
2018-08-17T10:40:08.157Z,3.07
2018-08-17T10:42:35.289Z,2.60
2018-08-17T10:45:02.478Z,2.77
2018-08-17T10:47:29.597Z,3.00
2018-08-17T10:49:57.942Z,3.00
2018-08-17T10:52:25.073Z,2.83
2018-08-17T10:54:52.209Z,2.67
2018-08-17T10:57:19.382Z,2.63
2018-08-17T10:59:46.518Z,2.63
2018-08-17T11:02:13.654Z,2.63
2018-08-17T11:04:40.828Z,2.73
2018-08-17T11:07:07.944Z,2.90
2018-08-17T11:09:35.069Z,2.40
2018-08-17T11:12:02.241Z,2.60
2018-08-17T11:14:29.437Z,2.40
2018-08-17T11:16:56.595Z,2.73
2018-08-17T11:19:23.725Z,2.60
2018-08-17T11:21:50.880Z,2.87
2018-08-17T11:24:18.032Z,2.70
2018-08-17T11:26:45.180Z,2.30
2018-08-17T11:29:12.313Z,2.87
2018-08-17T11:31:39.481Z,2.80
2018-08-17T11:34:06.624Z,2.50
2018-08-17T11:36:33.760Z,2.50
2018-08-17T11:39:00.920Z,2.57
2018-08-17T11:41:28.046Z,2.60
2018-08-17T11:43:58.776Z,2.83
2018-08-17T11:46:25.923Z,2.60
2018-08-17T11:48:53.153Z,2.60
2018-08-17T11:51:20.310Z,2.80
2018-08-17T11:53:47.481Z,3.10
2018-08-17T11:56:14.606Z,2.60
2018-08-17T11:58:41.747Z,2.63
2018-08-17T12:01:14.559Z,3.17
2018-08-17T12:03:41.601Z,2.93
2018-08-17T12:06:08.853Z,3.00
2018-08-17T12:08:36.002Z,3.17
2018-08-17T12:11:05.566Z,2.90
2018-08-17T12:13:35.897Z,3.10
2018-08-17T12:16:03.044Z,2.90
2018-08-17T12:18:30.165Z,3.50
2018-08-17T12:20:57.288Z,3.07
2018-08-17T12:23:24.397Z,2.87
2018-08-17T12:25:54.768Z,3.07
2018-08-17T12:28:22.632Z,3.00
2018-08-17T12:30:49.777Z,3.10
2018-08-17T12:33:16.881Z,3.23
2018-08-17T12:35:44.012Z,2.73
2018-08-17T12:38:14.311Z,3.10
2018-08-17T12:40:45.636Z,2.93
2018-08-17T12:43:13.921Z,2.90
2018-08-17T12:45:41.062Z,3.10
2018-08-17T12:48:08.213Z,2.80
2018-08-17T12:50:35.333Z,3.27
2018-08-17T12:53:02.494Z,3.20
2018-08-17T12:55:29.745Z,3.37
2018-08-17T12:57:56.983Z,3.20
2018-08-17T13:00:24.025Z,2.97
2018-08-17T13:02:51.230Z,2.90
2018-08-17T13:05:18.412Z,2.93
2018-08-17T13:07:45.509Z,3.27
2018-08-17T13:10:12.620Z,2.80
2018-08-17T13:12:39.765Z,3.30
2018-08-17T13:15:06.889Z,2.80
2018-08-17T13:17:39.669Z,2.50
2018-08-17T13:20:06.789Z,2.80
2018-08-17T13:22:33.917Z,3.20
2018-08-17T13:25:01.017Z,2.70
2018-08-17T13:27:28.132Z,2.80
2018-08-17T13:29:55.422Z,3.10
2018-08-17T13:32:22.489Z,2.53
2018-08-17T13:34:49.596Z,2.60
2018-08-17T13:37:16.737Z,2.47
2018-08-17T13:39:43.891Z,3.00
2018-08-17T13:42:11.100Z,2.60
2018-08-17T13:44:38.201Z,2.93
2018-08-17T13:47:05.334Z,3.30
2018-08-17T13:49:32.505Z,2.77
2018-08-17T13:51:59.636Z,3.10
2018-08-17T13:54:26.818Z,2.93
2018-08-17T13:56:53.916Z,3.00
2018-08-17T13:59:21.077Z,2.90
2018-08-17T14:01:48.224Z,3.40
2018-08-17T14:04:15.344Z,3.70
2018-08-17T14:06:42.493Z,3.50
2018-08-17T14:09:09.601Z,3.30
2018-08-17T14:11:36.738Z,3.27
2018-08-17T14:14:03.893Z,2.87
2018-08-17T14:16:31.093Z,3.20
2018-08-17T14:18:58.266Z,3.00
2018-08-17T14:21:25.408Z,2.77
2018-08-17T14:23:52.557Z,2.60
2018-08-17T14:26:19.736Z,2.63
2018-08-17T14:28:46.894Z,3.17
2018-08-17T14:31:13.996Z,2.70
2018-08-17T14:33:41.129Z,3.40
2018-08-17T14:36:08.247Z,2.93
2018-08-17T14:38:36.237Z,3.10
2018-08-17T14:41:04.104Z,2.70
2018-08-17T14:43:31.568Z,3.23
2018-08-17T14:45:58.705Z,3.20
2018-08-17T14:48:25.828Z,3.47
2018-08-17T14:50:53.032Z,3.40
2018-08-17T14:53:20.164Z,3.50
2018-08-17T14:55:47.300Z,3.37
2018-08-17T14:58:14.517Z,3.10
2018-08-17T15:00:41.644Z,3.10
2018-08-17T15:03:08.781Z,3.00
2018-08-17T15:05:35.918Z,2.77
2018-08-17T15:08:03.063Z,3.13
2018-08-17T15:10:30.187Z,2.60
2018-08-17T15:12:57.327Z,2.97
2018-08-17T15:15:24.473Z,2.60
2018-08-17T15:17:51.593Z,2.67
2018-08-17T15:20:18.713Z,2.20
2018-08-17T15:22:45.836Z,2.90
2018-08-17T15:25:13.013Z,2.53
2018-08-17T15:27:40.156Z,2.73
2018-08-17T15:30:11.395Z,2.43
2018-08-17T15:32:39.853Z,1.90
2018-08-17T15:35:07.186Z,2.33
2018-08-17T15:37:34.439Z,2.27
2018-08-17T15:40:01.570Z,2.40
2018-08-17T15:42:28.705Z,2.30
2018-08-17T15:44:55.812Z,3.37
2018-08-17T15:47:22.926Z,2.37
2018-08-17T15:50:04.281Z,2.17
2018-08-17T15:52:31.545Z,2.10
2018-08-17T15:54:58.648Z,2.33
2018-08-17T15:57:25.838Z,3.00
2018-08-17T15:59:52.941Z,2.50
2018-08-17T16:02:20.054Z,2.40
2018-08-17T16:04:47.329Z,2.80
2018-08-17T16:07:14.384Z,2.60
2018-08-17T16:09:41.497Z,2.03
2018-08-17T16:12:08.613Z,2.53
2018-08-17T16:14:35.744Z,2.33
2018-08-17T16:17:02.900Z,1.87
2018-08-17T16:19:30.010Z,1.97
2018-08-17T16:21:57.120Z,2.37
2018-08-17T16:24:24.229Z,2.20
2018-08-17T16:26:51.353Z,2.40
2018-08-17T16:29:18.548Z,2.03
2018-08-17T16:31:45.686Z,2.10
2018-08-17T16:34:12.836Z,2.23
2018-08-17T16:36:41.980Z,2.07
2018-08-17T16:39:12.316Z,2.10
2018-08-17T16:41:39.502Z,2.20
2018-08-17T16:44:06.658Z,1.87
2018-08-17T16:46:33.902Z,2.17
2018-08-17T16:49:01.015Z,1.90
2018-08-17T16:51:28.051Z,1.83
2018-08-17T16:53:55.164Z,1.80
2018-08-17T16:56:22.297Z,2.00
2018-08-17T16:58:49.429Z,1.90
2018-08-17T17:01:16.542Z,2.00
2018-08-17T17:03:43.694Z,1.90
2018-08-17T17:06:10.804Z,1.70
2018-08-17T17:08:37.916Z,1.70
2018-08-17T17:11:05.020Z,1.70
2018-08-17T17:13:37.538Z,2.03
2018-08-17T17:16:04.686Z,1.63
2018-08-17T17:18:31.802Z,1.80
2018-08-17T17:20:58.945Z,1.73
2018-08-17T17:23:26.052Z,1.60
2018-08-17T17:25:53.157Z,1.53
2018-08-17T17:28:20.257Z,1.50
2018-08-17T17:30:49.272Z,1.70
2018-08-17T17:33:16.452Z,1.57
2018-08-17T17:35:44.036Z,1.60
2018-08-17T17:38:11.716Z,1.50
2018-08-17T17:40:40.056Z,1.83
2018-08-17T17:43:07.595Z,1.50
2018-08-17T17:45:35.307Z,1.60
2018-08-17T17:48:02.778Z,1.60
2018-08-17T17:50:30.068Z,1.63
2018-08-17T17:52:57.687Z,1.40
2018-08-17T17:55:29.896Z,1.70
2018-08-17T17:57:57.033Z,1.60
2018-08-17T18:00:24.149Z,1.40
2018-08-17T18:02:51.276Z,1.20
2018-08-17T18:05:19.060Z,1.50
2018-08-17T18:07:48.162Z,1.37
2018-08-17T18:10:16.768Z,1.17
2018-08-17T18:12:43.887Z,1.30
2018-08-17T18:15:11.756Z,1.43
2018-08-17T18:17:38.908Z,1.37
2018-08-17T18:20:06.084Z,1.50
2018-08-17T18:22:33.204Z,1.40
2018-08-17T18:25:07.048Z,1.30
2018-08-17T18:27:34.323Z,1.27
2018-08-17T18:30:01.620Z,1.60
2018-08-17T18:32:28.741Z,1.40
2018-08-17T18:34:55.901Z,1.60
2018-08-17T18:37:23.021Z,1.50
2018-08-17T18:39:50.164Z,1.40
2018-08-17T18:42:17.267Z,1.60
2018-08-17T18:44:44.387Z,1.30
2018-08-17T18:47:11.504Z,1.40
2018-08-17T18:49:38.609Z,1.70
2018-08-17T18:52:05.753Z,1.37
2018-08-17T18:54:32.871Z,1.70
2018-08-17T18:57:00.005Z,1.50
2018-08-17T18:59:27.140Z,1.40
2018-08-17T19:01:54.276Z,1.50
2018-08-17T19:04:21.398Z,1.37
2018-08-17T19:06:48.572Z,1.33
2018-08-17T19:09:15.689Z,1.63
2018-08-17T19:11:42.820Z,1.77
2018-08-17T19:14:09.937Z,1.80
2018-08-17T19:16:37.067Z,1.87
2018-08-17T19:19:04.281Z,1.70
2018-08-17T19:21:31.412Z,1.80
2018-08-17T19:23:58.532Z,1.63
2018-08-17T19:26:25.655Z,1.83
2018-08-17T19:28:53.462Z,1.53
2018-08-17T19:31:20.611Z,1.37
2018-08-17T19:33:47.788Z,1.80
2018-08-17T19:36:14.912Z,1.50
2018-08-17T19:38:42.653Z,1.63
2018-08-17T19:41:09.915Z,1.93
2018-08-17T19:43:37.573Z,1.90
2018-08-17T19:46:04.823Z,1.90
2018-08-17T19:48:31.919Z,1.93
2018-08-17T19:50:59.087Z,1.90
2018-08-17T19:53:26.225Z,1.90
2018-08-17T19:55:53.609Z,1.80
2018-08-17T19:58:20.755Z,1.40
2018-08-17T20:00:47.860Z,1.67
2018-08-17T20:03:14.953Z,1.93
2018-08-17T20:05:42.045Z,1.90
2018-08-17T20:08:09.169Z,2.00
2018-08-17T20:10:36.284Z,2.00
2018-08-17T20:13:03.417Z,1.93
2018-08-17T20:15:30.534Z,2.40
2018-08-17T20:17:57.649Z,2.00
2018-08-17T20:20:24.756Z,1.70
2018-08-17T20:22:57.149Z,1.93
2018-08-17T20:25:24.237Z,1.80
2018-08-17T20:27:52.141Z,1.90
2018-08-17T20:30:21.312Z,1.90
2018-08-17T20:32:48.483Z,1.93
2018-08-17T20:35:15.628Z,2.03
2018-08-17T20:37:44.712Z,2.00
2018-08-17T20:40:11.845Z,2.13
2018-08-17T20:42:38.981Z,2.07
2018-08-17T20:45:06.958Z,2.10
2018-08-17T20:47:35.488Z,2.03
2018-08-17T20:50:03.328Z,2.30
2018-08-17T20:52:30.452Z,2.07
2018-08-17T20:54:57.569Z,1.90
2018-08-17T20:57:24.674Z,1.80
2018-08-17T20:59:51.796Z,2.17
2018-08-17T21:02:18.893Z,2.50
2018-08-17T21:04:45.985Z,2.23
2018-08-17T21:07:13.090Z,2.20
2018-08-17T21:09:40.215Z,2.10
2018-08-17T21:12:07.379Z,2.47
2018-08-17T21:14:34.501Z,2.40
2018-08-17T21:17:01.649Z,2.30
2018-08-17T21:19:35.303Z,2.50
2018-08-17T21:22:02.485Z,2.80
2018-08-17T21:24:29.588Z,2.30
2018-08-17T21:26:56.712Z,3.10
2018-08-17T21:29:23.947Z,3.53
2018-08-17T21:31:51.104Z,3.60
2018-08-17T21:34:18.252Z,3.77
2018-08-17T21:36:45.360Z,4.10
2018-08-17T21:39:15.045Z,4.10
2018-08-17T21:41:43.312Z,3.70
2018-08-17T21:44:14.537Z,4.30
2018-08-17T21:46:54.116Z,4.27
2018-08-17T21:49:22.279Z,3.90
2018-08-17T21:51:52.751Z,3.70
2018-08-17T21:54:19.861Z,3.93
2018-08-17T21:56:47.530Z,3.90
2018-08-17T21:59:14.648Z,3.87
2018-08-17T22:01:41.821Z,4.10
2018-08-17T22:04:08.928Z,3.93
2018-08-17T22:06:36.028Z,3.50
2018-08-17T22:09:04.465Z,4.33
2018-08-17T22:11:32.758Z,4.27
2018-08-17T22:13:59.876Z,4.27
2018-08-17T22:16:26.972Z,3.87
2018-08-17T22:18:54.163Z,3.77
2018-08-17T22:21:21.286Z,4.00
2018-08-17T22:23:48.388Z,4.23
2018-08-17T22:26:15.524Z,4.83
2018-08-17T22:28:42.620Z,4.13
2018-08-17T22:31:09.753Z,4.67
2018-08-17T22:33:36.883Z,4.83
2018-08-17T22:36:08.161Z,4.40
2018-08-17T22:38:39.944Z,6.40
2018-08-17T22:41:07.063Z,7.20
2018-08-17T22:43:34.208Z,6.10
2018-08-17T22:46:01.312Z,6.17
2018-08-17T22:48:28.530Z,6.20
2018-08-17T22:50:55.592Z,5.43
2018-08-17T22:53:22.701Z,5.13
2018-08-17T22:55:49.801Z,4.97
2018-08-17T22:58:16.896Z,4.60
2018-08-17T23:00:44.029Z,5.40
2018-08-17T23:03:11.155Z,5.17
2018-08-17T23:05:38.261Z,5.23
2018-08-17T23:08:05.406Z,5.47
2018-08-17T23:10:32.560Z,5.27
2018-08-17T23:12:59.680Z,5.57
2018-08-17T23:15:26.837Z,5.37
2018-08-17T23:17:58.208Z,4.63
2018-08-17T23:20:30.985Z,5.00
2018-08-17T23:22:59.404Z,4.97
2018-08-17T23:25:26.576Z,6.50
2018-08-17T23:27:53.801Z,5.87
2018-08-17T23:30:21.856Z,6.30
2018-08-17T23:32:49.090Z,5.83
2018-08-17T23:35:16.257Z,6.00
2018-08-17T23:37:43.437Z,5.57
2018-08-17T23:40:10.636Z,6.67
2018-08-17T23:42:37.756Z,6.50
2018-08-17T23:45:06.413Z,6.97
2018-08-17T23:47:33.644Z,6.97
2018-08-17T23:50:00.768Z,6.73
2018-08-17T23:52:27.880Z,6.70
2018-08-17T23:54:55.000Z,6.87
2018-08-17T23:57:22.116Z,7.20
2018-08-17T23:59:49.212Z,7.87
